Time;durP1;ratioP1;P1;durP2;ratioP2;P2;SDS_P1;SDS_P2;PMS_P1;PMS_P2;Temp;Humidity;BMP_temperature;BMP_pressure;BME280_temperature;BME280_humidity;BME280_pressure;Samples;Min_cycle;Max_cycle;Signal;HPM_P1;HPM_P2
2022/07/12 00:01:46;;;;;;;2.85;1.85;;;;;;;14.57;98.32;96518.31;5024836;28;24842;-74
2022/07/12 00:04:13;;;;;;;1.67;1.50;;;;;;;14.56;99.87;96511.44;5028288;28;24428;-74
2022/07/12 00:06:39;;;;;;;2.20;1.52;;;;;;;14.71;92.60;96518.22;5029271;28;24970;-75
2022/07/12 00:09:06;;;;;;;3.63;1.40;;;;;;;14.48;92.67;96517.13;5029831;28;24440;-75
2022/07/12 00:11:32;;;;;;;2.43;1.57;;;;;;;14.43;91.88;96518.38;5030075;28;24466;-74
2022/07/12 00:13:59;;;;;;;1.55;1.40;;;;;;;14.19;93.95;96519.03;5029287;28;24451;-75
2022/07/12 00:16:25;;;;;;;2.80;1.65;;;;;;;13.83;100.00;96524.00;5031193;28;24435;-75
2022/07/12 00:18:53;;;;;;;1.70;1.30;;;;;;;13.70;100.00;96526.56;5029591;28;24431;-74
2022/07/12 00:21:20;;;;;;;1.77;1.45;;;;;;;13.67;100.00;96532.78;5031563;28;25379;-75
2022/07/12 00:23:46;;;;;;;3.05;1.77;;;;;;;13.86;97.98;96527.25;5027883;28;24424;-74
2022/07/12 00:26:13;;;;;;;1.80;1.30;;;;;;;13.71;100.00;96534.28;5017410;28;24795;-74
2022/07/12 00:28:39;;;;;;;1.90;1.70;;;;;;;13.82;100.00;96520.56;5028062;28;24432;-75
2022/07/12 00:31:06;;;;;;;3.07;1.67;;;;;;;13.61;100.00;96532.34;5045358;28;24446;-75
2022/07/12 00:33:32;;;;;;;1.77;1.53;;;;;;;13.71;100.00;96523.03;5042275;28;25129;-75
2022/07/12 00:36:00;;;;;;;2.38;1.52;;;;;;;13.73;100.00;96522.00;5041894;28;24988;-75
2022/07/12 00:38:27;;;;;;;2.88;1.80;;;;;;;13.58;100.00;96517.78;5045036;28;24438;-74
2022/07/12 00:40:53;;;;;;;1.98;1.38;;;;;;;13.50;100.00;96517.41;5032048;28;24432;-74
2022/07/12 00:43:20;;;;;;;2.28;1.50;;;;;;;13.53;100.00;96520.66;5029282;28;24535;-74
2022/07/12 00:45:46;;;;;;;1.63;1.35;;;;;;;13.47;100.00;96522.81;5038264;28;24436;-75
2022/07/12 00:48:13;;;;;;;1.92;1.40;;;;;;;13.46;100.00;96523.72;5043176;28;24427;-75
2022/07/12 00:50:40;;;;;;;2.72;1.55;;;;;;;13.39;100.00;96522.47;5032524;28;25020;-74
2022/07/12 00:53:09;;;;;;;1.40;1.27;;;;;;;13.43;100.00;96523.94;5028976;28;24451;-75
2022/07/12 00:55:35;;;;;;;1.45;1.35;;;;;;;13.46;100.00;96528.94;5032014;28;25039;-75
2022/07/12 00:58:02;;;;;;;2.15;1.40;;;;;;;13.58;97.51;96530.78;5029569;28;24424;-75
2022/07/12 01:00:30;;;;;;;3.15;1.67;;;;;;;13.54;99.29;96530.16;5026519;28;24428;-75
2022/07/12 01:02:58;;;;;;;1.73;1.23;;;;;;;13.42;100.00;96532.66;5037901;28;24848;-75
2022/07/12 01:05:27;;;;;;;2.28;1.50;;;;;;;13.30;100.00;96529.03;5047045;28;24978;-75
2022/07/12 01:07:55;;;;;;;1.75;1.52;;;;;;;13.26;100.00;96530.16;5029316;28;24431;-75
2022/07/12 01:10:23;;;;;;;2.05;1.70;;;;;;;13.42;100.00;96524.84;5026762;28;24454;-75
2022/07/12 01:12:50;;;;;;;2.00;1.75;;;;;;;13.39;100.00;96528.50;5029506;28;24452;-75
2022/07/12 01:15:17;;;;;;;1.35;1.25;;;;;;;13.48;100.00;96529.69;5026172;28;24427;-75
2022/07/12 01:17:45;;;;;;;1.40;1.30;;;;;;;13.35;100.00;96531.34;5029544;28;24511;-75
2022/07/12 01:20:13;;;;;;;2.63;1.45;;;;;;;13.27;100.00;96534.44;5026822;28;24435;-75
2022/07/12 01:22:42;;;;;;;1.60;1.50;;;;;;;13.29;100.00;96537.78;5016982;28;24439;-75
2022/07/12 01:25:10;;;;;;;1.50;1.40;;;;;;;13.37;100.00;96537.31;5027089;28;24432;-75
2022/07/12 01:27:38;;;;;;;2.70;1.63;;;;;;;13.37;100.00;96534.72;5029389;28;24794;-75
2022/07/12 01:30:06;;;;;;;3.83;1.70;;;;;;;13.15;100.00;96536.00;5025990;28;24440;-75
2022/07/12 01:32:34;;;;;;;2.83;1.67;;;;;;;13.12;100.00;96536.16;5029917;28;24435;-75
2022/07/12 01:35:01;;;;;;;1.92;1.58;;;;;;;13.15;100.00;96541.19;5026698;28;24799;-74
2022/07/12 01:37:30;;;;;;;2.28;1.83;;;;;;;13.16;100.00;96540.25;5029643;28;24435;-75
2022/07/12 01:39:58;;;;;;;3.17;1.98;;;;;;;13.24;100.00;96537.25;5027241;28;24435;-75
2022/07/12 01:42:28;;;;;;;2.38;1.65;;;;;;;13.26;100.00;96532.78;5029917;28;24436;-75
2022/07/12 01:44:55;;;;;;;1.90;1.70;;;;;;;13.26;100.00;96531.00;5027637;28;24440;-75
2022/07/12 01:47:26;;;;;;;1.90;1.70;;;;;;;13.25;100.00;96536.31;5029548;28;24439;-76
2022/07/12 01:49:53;;;;;;;2.05;1.70;;;;;;;13.27;100.00;96535.28;5026892;28;24985;-75
2022/07/12 01:52:20;;;;;;;4.45;1.70;;;;;;;13.30;100.00;96535.09;5029718;28;24444;-75
2022/07/12 01:54:47;;;;;;;2.58;1.70;;;;;;;13.34;100.00;96525.31;5026923;28;24814;-75
2022/07/12 01:57:14;;;;;;;4.63;1.73;;;;;;;13.37;100.00;96524.31;5021401;28;24439;-75
2022/07/12 01:59:42;;;;;;;2.08;1.50;;;;;;;13.44;100.00;96520.41;5027300;28;24540;-75
2022/07/12 02:02:09;;;;;;;3.58;1.85;;;;;;;13.50;100.00;96533.03;5029123;28;24447;-75
2022/07/12 02:04:36;;;;;;;3.00;1.80;;;;;;;13.55;100.00;96528.38;5027937;28;24440;-75
2022/07/12 02:07:04;;;;;;;1.75;1.65;;;;;;;13.58;100.00;96530.78;5028153;28;24973;-75
2022/07/12 02:09:30;;;;;;;1.83;1.60;;;;;;;13.62;100.00;96532.25;5028393;28;24427;-75
2022/07/12 02:11:57;;;;;;;2.22;1.83;;;;;;;13.61;100.00;96533.19;5019615;28;24436;-75
2022/07/12 02:14:24;;;;;;;5.13;1.90;;;;;;;13.63;100.00;96528.72;5029246;28;24521;-75
2022/07/12 02:16:52;;;;;;;7.03;1.92;;;;;;;13.64;100.00;96530.38;5027311;28;24886;-75
2022/07/12 02:19:18;;;;;;;2.63;1.63;;;;;;;13.68;100.00;96526.69;5021762;28;24507;-75
2022/07/12 02:21:45;;;;;;;4.28;1.95;;;;;;;13.64;100.00;96522.56;5026668;28;24467;-75
2022/07/12 02:24:11;;;;;;;2.35;1.65;;;;;;;13.62;100.00;96524.44;5024073;28;24790;-75
2022/07/12 02:26:38;;;;;;;3.22;2.00;;;;;;;13.62;100.00;96529.66;5025180;28;24802;-75
2022/07/12 02:29:05;;;;;;;1.92;1.80;;;;;;;13.65;100.00;96519.06;5029992;28;24435;-75
2022/07/12 02:31:32;;;;;;;2.60;1.95;;;;;;;13.69;100.00;96524.91;5025871;28;25000;-75
2022/07/12 02:34:00;;;;;;;2.38;1.80;;;;;;;13.67;100.00;96525.00;5030488;28;24474;-75
2022/07/12 02:36:27;;;;;;;2.40;1.70;;;;;;;13.69;100.00;96519.72;5025985;28;24454;-75
2022/07/12 02:38:53;;;;;;;2.15;1.70;;;;;;;13.59;100.00;96514.22;5029955;28;24432;-77
2022/07/12 02:41:20;;;;;;;1.55;1.45;;;;;;;13.55;100.00;96524.00;5025952;28;24458;-75
2022/07/12 02:43:46;;;;;;;1.90;1.40;;;;;;;13.47;100.00;96515.00;5022869;28;25000;-75
2022/07/12 02:46:14;;;;;;;2.35;1.60;;;;;;;13.44;100.00;96523.84;5027197;28;24443;-75
2022/07/12 02:48:41;;;;;;;1.80;1.40;;;;;;;13.31;100.00;96523.78;5029771;28;24528;-75
2022/07/12 02:51:10;;;;;;;2.53;1.60;;;;;;;13.30;100.00;96527.28;5026782;28;24436;-75
2022/07/12 02:53:37;;;;;;;2.40;1.88;;;;;;;13.32;100.00;96520.22;5029478;28;24538;-75
2022/07/12 02:56:04;;;;;;;2.40;1.57;;;;;;;13.24;100.00;96532.03;5026887;28;24427;-75
2022/07/12 02:58:30;;;;;;;2.35;1.48;;;;;;;13.17;100.00;96523.75;5029266;28;24510;-75
2022/07/12 03:00:57;;;;;;;1.75;1.55;;;;;;;13.10;100.00;96526.81;5026901;28;24435;-75
2022/07/12 03:03:23;;;;;;;1.70;1.50;;;;;;;13.02;100.00;96533.31;5029471;28;24513;-75
2022/07/12 03:05:50;;;;;;;1.42;1.33;;;;;;;13.00;100.00;96526.53;5026944;28;25067;-75
2022/07/12 03:08:18;;;;;;;1.70;1.52;;;;;;;13.02;100.00;96524.69;5028914;28;24992;-75
2022/07/12 03:10:45;;;;;;;3.83;1.80;;;;;;;13.06;100.00;96531.38;5026638;28;24438;-75
2022/07/12 03:13:11;;;;;;;3.85;1.83;;;;;;;12.89;100.00;96539.34;5029461;28;24460;-75
2022/07/12 03:15:37;;;;;;;4.20;2.08;;;;;;;12.88;100.00;96537.66;5026813;28;24439;-75
2022/07/12 03:18:04;;;;;;;1.88;1.65;;;;;;;12.83;100.00;96537.94;5029470;28;24438;-75
2022/07/12 03:20:32;;;;;;;3.80;1.42;;;;;;;12.89;100.00;96540.16;5026344;28;24447;-75
2022/07/12 03:22:59;;;;;;;2.20;1.52;;;;;;;12.59;100.00;96540.22;5029099;28;24432;-74
2022/07/12 03:25:26;;;;;;;3.55;1.90;;;;;;;12.68;100.00;96547.50;5024333;28;24435;-74
2022/07/12 03:27:54;;;;;;;1.70;1.60;;;;;;;12.67;100.00;96545.78;5023085;28;24439;-74
2022/07/12 03:30:21;;;;;;;3.35;1.80;;;;;;;12.68;100.00;96549.22;5026637;28;25138;-75
2022/07/12 03:32:47;;;;;;;2.08;1.88;;;;;;;12.57;100.00;96548.13;5029822;28;24984;-75
2022/07/12 03:35:14;;;;;;;2.95;1.77;;;;;;;12.56;100.00;96554.22;5026605;28;25000;-75
2022/07/12 03:37:44;;;;;;;4.50;2.22;;;;;;;12.63;100.00;96548.66;5017666;28;25253;-74
2022/07/12 03:40:12;;;;;;;2.53;2.17;;;;;;;12.56;100.00;96548.19;5029042;28;24988;-74
2022/07/12 03:42:39;;;;;;;15.90;2.20;;;;;;;12.68;100.00;96552.69;5029816;28;25009;-75
2022/07/12 03:45:07;;;;;;;2.67;2.33;;;;;;;12.67;100.00;96548.38;5030373;28;24436;-74
2022/07/12 03:47:34;;;;;;;2.73;2.17;;;;;;;12.59;100.00;96554.03;5030667;28;24467;-74
2022/07/12 03:50:01;;;;;;;6.47;2.30;;;;;;;12.67;100.00;96557.94;5029946;28;24439;-75
2022/07/12 03:52:28;;;;;;;3.90;2.00;;;;;;;12.67;100.00;96557.94;5031073;28;24878;-74
2022/07/12 03:54:54;;;;;;;2.33;2.10;;;;;;;12.63;100.00;96553.88;5029563;28;24463;-75
2022/07/12 03:57:20;;;;;;;2.72;2.22;;;;;;;12.72;100.00;96564.56;5031949;28;24450;-75
2022/07/12 03:59:48;;;;;;;6.82;2.45;;;;;;;12.87;100.00;96557.63;5020864;28;24431;-74
2022/07/12 04:02:15;;;;;;;2.65;2.17;;;;;;;12.79;100.00;96549.44;5032989;28;24439;-74
2022/07/12 04:04:42;;;;;;;3.90;2.15;;;;;;;12.55;100.00;96562.09;5028548;28;25262;-75
2022/07/12 04:07:09;;;;;;;2.67;2.10;;;;;;;12.60;100.00;96560.06;5032607;28;24475;-75
2022/07/12 04:09:35;;;;;;;2.63;2.30;;;;;;;12.56;100.00;96567.19;5028865;28;24518;-75
2022/07/12 04:12:01;;;;;;;3.10;1.97;;;;;;;12.68;100.00;96570.00;5032932;28;24451;-75
2022/07/12 04:14:29;;;;;;;2.65;2.40;;;;;;;12.80;100.00;96557.16;5029149;28;25000;-75
2022/07/12 04:16:57;;;;;;;3.42;2.00;;;;;;;12.63;100.00;96556.47;5032992;28;24452;-75
2022/07/12 04:19:27;;;;;;;3.35;2.50;;;;;;;12.44;100.00;96554.09;5028575;28;24428;-75
2022/07/12 04:21:54;;;;;;;3.03;2.45;;;;;;;12.50;100.00;96556.34;5033311;28;24546;-74
2022/07/12 04:24:20;;;;;;;2.78;2.20;;;;;;;12.58;100.00;96554.13;5029249;28;24794;-75
2022/07/12 04:26:48;;;;;;;2.83;2.35;;;;;;;12.82;100.00;96557.06;5032892;28;24519;-75
2022/07/12 04:29:14;;;;;;;3.42;2.10;;;;;;;12.69;100.00;96559.53;5021370;28;24540;-75
2022/07/12 04:31:41;;;;;;;2.50;2.13;;;;;;;12.72;100.00;96564.56;5032266;28;24458;-74
2022/07/12 04:34:09;;;;;;;10.33;2.20;;;;;;;12.94;100.00;96561.53;5029064;28;24455;-75
2022/07/12 04:36:35;;;;;;;2.13;1.92;;;;;;;12.92;100.00;96565.97;5031788;28;24436;-74
2022/07/12 04:39:03;;;;;;;2.65;2.15;;;;;;;12.96;100.00;96564.03;5029020;28;24435;-74
2022/07/12 04:41:29;;;;;;;2.88;2.50;;;;;;;13.07;100.00;96561.63;5031895;28;24475;-74
2022/07/12 04:43:56;;;;;;;3.05;2.15;;;;;;;13.21;100.00;96572.03;5029436;28;24443;-74
2022/07/12 04:46:22;;;;;;;2.80;2.47;;;;;;;13.28;100.00;96567.34;5026989;28;24438;-75
2022/07/12 04:48:49;;;;;;;4.65;2.60;;;;;;;13.29;100.00;96564.63;5029413;28;24497;-74
2022/07/12 04:51:17;;;;;;;3.03;2.40;;;;;;;13.30;100.00;96561.09;5026749;28;24453;-74
2022/07/12 04:53:44;;;;;;;5.35;2.85;;;;;;;13.43;100.00;96566.41;5029854;28;24840;-74
2022/07/12 04:56:10;;;;;;;5.50;2.43;;;;;;;13.59;100.00;96555.03;5027323;28;24435;-74
2022/07/12 04:58:36;;;;;;;3.97;2.50;;;;;;;13.51;100.00;96558.94;5029785;28;24994;-75
2022/07/12 05:01:03;;;;;;;5.30;2.50;;;;;;;13.61;100.00;96563.56;5027124;28;24443;-75
2022/07/12 05:03:30;;;;;;;3.83;2.38;;;;;;;13.71;100.00;96565.50;5030274;28;24531;-75
2022/07/12 05:05:57;;;;;;;3.22;2.35;;;;;;;13.90;100.00;96564.34;5027234;28;24532;-75
2022/07/12 05:08:25;;;;;;;3.47;2.47;;;;;;;14.00;100.00;96565.44;5030007;28;24523;-75
2022/07/12 05:10:52;;;;;;;3.33;2.65;;;;;;;13.75;100.00;96567.00;5027528;28;24439;-74
2022/07/12 05:13:18;;;;;;;2.90;2.38;;;;;;;13.96;100.00;96569.19;5030353;28;24837;-74
2022/07/12 05:15:45;;;;;;;3.97;2.33;;;;;;;14.16;100.00;96570.50;5026443;28;24452;-74
2022/07/12 05:18:11;;;;;;;3.67;2.77;;;;;;;14.34;100.00;96576.31;5028375;28;24439;-75
2022/07/12 05:20:38;;;;;;;7.65;2.78;;;;;;;14.53;100.00;96584.63;5027982;28;24996;-75
2022/07/12 05:23:04;;;;;;;4.65;2.63;;;;;;;14.63;100.00;96582.25;5027946;28;24439;-75
2022/07/12 05:25:32;;;;;;;4.95;2.42;;;;;;;14.55;100.00;96574.94;5029060;28;24431;-73
2022/07/12 05:27:59;;;;;;;5.35;2.67;;;;;;;14.52;100.00;96578.56;5027517;28;24432;-74
2022/07/12 05:30:25;;;;;;;3.88;2.65;;;;;;;14.69;100.00;96587.06;5029417;28;24520;-75
2022/07/12 05:32:52;;;;;;;2.58;2.38;;;;;;;14.84;100.00;96586.06;5019045;28;24498;-74
2022/07/12 05:35:18;;;;;;;4.30;2.50;;;;;;;14.96;100.00;96593.03;5030593;28;24510;-74
2022/07/12 05:37:45;;;;;;;2.40;2.15;;;;;;;15.00;100.00;96596.28;5026325;28;24435;-75
2022/07/12 05:40:12;;;;;;;3.33;2.30;;;;;;;15.09;100.00;96595.69;5031485;28;24439;-74
2022/07/12 05:42:39;;;;;;;2.40;2.03;;;;;;;15.22;100.00;96591.28;5025777;28;24444;-74
2022/07/12 05:45:08;;;;;;;5.10;2.20;;;;;;;15.36;100.00;96598.16;5030821;28;24432;-74
2022/07/12 05:47:34;;;;;;;2.35;2.03;;;;;;;15.45;100.00;96607.13;5026086;28;24491;-74
2022/07/12 05:50:00;;;;;;;2.47;2.00;;;;;;;15.51;100.00;96601.50;5031200;28;24439;-74
2022/07/12 05:55:11;;;;;;;3.80;2.50;;;;;;;15.61;100.00;96602.53;5024439;28;24478;-75
2022/07/12 05:57:37;;;;;;;2.33;2.13;;;;;;;15.69;100.00;96621.16;5025885;28;24463;-75
2022/07/12 06:00:06;;;;;;;2.92;1.95;;;;;;;15.88;100.00;96609.41;5028863;28;25019;-76
2022/07/12 06:02:33;;;;;;;2.37;2.17;;;;;;;16.15;100.00;96615.28;5025019;28;24981;-75
2022/07/12 06:04:59;;;;;;;3.92;2.42;;;;;;;16.21;100.00;96609.63;5030706;28;24424;-75
2022/07/12 06:07:26;;;;;;;2.47;1.95;;;;;;;16.51;100.00;96610.94;5029660;28;24443;-75
2022/07/12 06:09:52;;;;;;;3.35;1.23;;;;;;;16.61;99.41;96619.78;5030286;28;24966;-75
2022/07/12 06:12:18;;;;;;;1.77;1.10;;;;;;;16.63;99.64;96610.03;5026893;28;24435;-75
2022/07/12 06:14:45;;;;;;;2.50;1.75;;;;;;;17.45;100.00;96620.50;5030613;28;24454;-75
2022/07/12 06:17:13;;;;;;;1.55;1.23;;;;;;;17.60;100.00;96621.94;5019471;28;24440;-75
2022/07/12 06:19:39;;;;;;;1.27;1.17;;;;;;;17.86;96.90;96621.72;5029485;28;24440;-73
2022/07/12 06:22:06;;;;;;;3.20;1.50;;;;;;;18.13;89.29;96616.94;5029859;28;24539;-73
2022/07/12 06:24:32;;;;;;;2.28;1.33;;;;;;;18.14;89.48;96629.09;5029720;28;24432;-73
2022/07/12 06:26:58;;;;;;;1.70;1.23;;;;;;;18.55;88.51;96624.91;5027189;28;24838;-73
2022/07/12 06:29:25;;;;;;;2.08;1.13;;;;;;;18.68;88.34;96632.63;5029713;28;24436;-73
2022/07/12 06:31:51;;;;;;;2.15;1.40;;;;;;;18.79;85.43;96629.97;5025114;28;24444;-73
2022/07/12 06:34:19;;;;;;;3.95;1.20;;;;;;;18.98;79.61;96631.06;5024415;28;25009;-74
2022/07/12 06:36:45;;;;;;;2.53;1.30;;;;;;;19.01;82.74;96629.03;5025794;28;24440;-73
2022/07/12 06:39:12;;;;;;;2.65;1.13;;;;;;;18.84;80.11;96633.06;5026638;28;24436;-72
2022/07/12 06:41:38;;;;;;;2.53;1.08;;;;;;;18.83;84.00;96630.56;5026755;28;24448;-73
2022/07/12 06:44:05;;;;;;;2.83;0.88;;;;;;;18.93;79.43;96628.00;5026146;28;24787;-73
2022/07/12 06:46:31;;;;;;;2.15;0.80;;;;;;;19.18;81.57;96626.81;5027618;28;24482;-73
2022/07/12 06:48:58;;;;;;;1.10;0.63;;;;;;;19.39;75.55;96638.13;5025291;28;24431;-73
2022/07/12 06:51:26;;;;;;;5.30;0.88;;;;;;;19.43;77.13;96631.66;5028259;28;24435;-74
2022/07/12 06:53:52;;;;;;;0.80;0.63;;;;;;;19.68;73.01;96640.09;5025093;28;24428;-73
2022/07/12 06:56:18;;;;;;;1.70;0.60;;;;;;;19.76;70.78;96638.50;5029183;28;24575;-74
2022/07/12 06:58:45;;;;;;;1.02;0.50;;;;;;;19.62;71.83;96638.00;5024292;28;24436;-74
2022/07/12 07:01:11;;;;;;;0.68;0.43;;;;;;;19.82;71.07;96640.59;5029711;28;24436;-73
2022/07/12 07:03:39;;;;;;;0.77;0.60;;;;;;;20.03;72.63;96650.22;5023467;28;21307;-74
2022/07/12 07:06:06;;;;;;;0.90;0.50;;;;;;;20.19;67.88;96644.44;5029515;28;25087;-73
2022/07/12 07:08:34;;;;;;;1.75;0.50;;;;;;;20.36;68.83;96646.44;5023704;28;24443;-74
2022/07/12 07:11:00;;;;;;;2.25;0.60;;;;;;;20.48;72.09;96644.50;5029671;28;24432;-74
2022/07/12 07:13:27;;;;;;;0.70;0.50;;;;;;;20.55;67.07;96650.94;5026811;28;25042;-74
2022/07/12 07:15:53;;;;;;;1.67;0.60;;;;;;;20.47;65.96;96654.22;5028952;28;24455;-74
2022/07/12 07:18:20;;;;;;;1.60;0.50;;;;;;;20.68;65.61;96648.84;5033390;28;24466;-75
2022/07/12 07:20:46;;;;;;;1.08;0.43;;;;;;;20.77;64.72;96663.84;5029632;28;24443;-75
2022/07/12 07:23:16;;;;;;;1.00;0.60;;;;;;;20.99;67.76;96659.28;5017766;28;24435;-75
2022/07/12 07:25:44;;;;;;;0.90;0.50;;;;;;;21.35;63.69;96664.81;5022939;28;24539;-76
2022/07/12 07:28:10;;;;;;;2.97;0.85;;;;;;;21.40;65.35;96671.31;5031350;28;24439;-76
2022/07/12 07:30:54;;;;;;;0.87;0.50;;;;;;;21.52;63.58;96660.63;5030446;28;24443;-76
2022/07/12 07:33:21;;;;;;;3.70;0.55;;;;;;;21.39;62.23;96664.38;5024496;28;24450;-74
2022/07/12 07:35:48;;;;;;;1.13;0.70;;;;;;;21.41;64.29;96659.81;5031865;28;24448;-75
2022/07/12 07:38:15;;;;;;;0.87;0.50;;;;;;;21.51;60.41;96659.78;5032758;28;24439;-75
2022/07/12 07:40:41;;;;;;;9.75;1.63;;;;;;;21.67;64.83;96660.03;5033273;28;24456;-76
2022/07/12 07:43:10;;;;;;;1.15;0.75;;;;;;;21.60;60.61;96666.84;5028199;28;24898;-75
2022/07/12 07:45:37;;;;;;;1.05;0.60;;;;;;;21.89;63.92;96666.75;5037101;28;24425;-76
2022/07/12 07:48:04;;;;;;;0.82;0.60;;;;;;;21.83;59.08;96669.13;5027816;28;24454;-76
2022/07/12 07:50:31;;;;;;;0.47;0.43;;;;;;;21.83;59.60;96656.75;5023829;28;24442;-76
2022/07/12 07:52:58;;;;;;;0.50;0.40;;;;;;;22.12;59.30;96663.75;5027188;28;24464;-76
2022/07/12 07:55:25;;;;;;;1.50;0.50;;;;;;;22.13;57.31;96663.56;5032156;28;24505;-75
2022/07/12 07:57:51;;;;;;;1.03;0.40;;;;;;;22.23;60.13;96663.56;5029494;28;24486;-75
2022/07/12 08:00:19;;;;;;;0.70;0.47;;;;;;;22.46;56.48;96659.53;5031898;28;24454;-75
2022/07/12 08:02:45;;;;;;;0.70;0.25;;;;;;;22.63;56.94;96659.72;5029645;28;25005;-75
2022/07/12 08:05:12;;;;;;;0.80;0.50;;;;;;;22.50;57.14;96657.44;5032707;28;24482;-75
2022/07/12 08:07:38;;;;;;;0.40;0.38;;;;;;;22.52;56.70;96654.66;5029724;28;24425;-75
2022/07/12 08:10:05;;;;;;;0.90;0.50;;;;;;;22.67;55.83;96661.09;5032883;28;24454;-78
2022/07/12 08:12:32;;;;;;;0.38;0.38;;;;;;;22.77;57.39;96647.81;5032221;28;24841;-76
2022/07/12 08:14:58;;;;;;;0.50;0.50;;;;;;;22.66;54.42;96654.16;5030865;28;24810;-76
2022/07/12 08:17:26;;;;;;;0.75;0.63;;;;;;;22.70;55.68;96658.16;5027773;28;25101;-75
2022/07/12 08:19:52;;;;;;;1.75;0.60;;;;;;;22.42;53.76;96654.72;5030197;28;24432;-76
2022/07/12 08:22:19;;;;;;;0.85;0.70;;;;;;;22.77;54.03;96659.22;5029608;28;24435;-76
2022/07/12 08:24:45;;;;;;;1.30;0.57;;;;;;;22.58;54.39;96656.69;5030314;28;24498;-75
2022/07/12 08:27:11;;;;;;;2.20;0.80;;;;;;;23.08;57.87;96653.56;5032047;28;24883;-76
2022/07/12 08:29:38;;;;;;;0.63;0.60;;;;;;;23.24;56.52;96651.06;5030598;28;24447;-76
2022/07/12 08:32:07;;;;;;;1.17;0.80;;;;;;;23.04;54.08;96649.59;5031030;28;24436;-76
2022/07/12 08:34:35;;;;;;;0.68;0.50;;;;;;;23.16;54.36;96653.63;5026717;28;25225;-76
2022/07/12 08:37:01;;;;;;;1.25;0.90;;;;;;;23.24;54.01;96656.34;5030620;28;24793;-76
2022/07/12 08:39:28;;;;;;;1.65;0.98;;;;;;;22.60;55.45;96660.84;5027107;28;25023;-76
2022/07/12 08:41:54;;;;;;;2.07;1.07;;;;;;;22.74;55.30;96664.78;5032107;28;24447;-76
2022/07/12 08:44:21;;;;;;;3.10;1.00;;;;;;;22.28;56.01;96669.22;5027376;28;24443;-76
2022/07/12 08:46:47;;;;;;;1.48;1.00;;;;;;;21.70;58.58;96667.66;5019874;28;25982;-76
2022/07/12 08:49:14;;;;;;;1.83;0.80;;;;;;;22.15;58.54;96677.50;5027962;28;24603;-76
2022/07/12 08:51:42;;;;;;;1.80;0.95;;;;;;;21.57;57.79;96680.28;5031432;28;24441;-75
2022/07/12 08:54:10;;;;;;;1.10;0.60;;;;;;;21.60;61.38;96685.28;5029087;28;24432;-75
2022/07/12 08:56:38;;;;;;;1.30;0.80;;;;;;;21.24;58.83;96685.03;5024475;28;24936;-76
2022/07/12 08:59:12;;;;;;;2.15;0.93;;;;;;;20.90;58.71;96681.16;5028898;28;24471;-76
2022/07/12 09:01:44;;;;;;;0.80;0.80;;;;;;;21.62;59.94;96688.63;5031225;28;24995;-76
2022/07/12 09:04:11;;;;;;;1.23;0.70;;;;;;;22.28;59.93;96676.31;5022935;28;24451;-76
2022/07/12 09:06:38;;;;;;;1.23;1.00;;;;;;;22.85;56.21;96676.97;5031905;28;24436;-74
2022/07/12 09:09:08;;;;;;;1.40;0.70;;;;;;;23.23;58.27;96680.28;5031477;28;24434;-76
2022/07/12 09:11:36;;;;;;;1.35;0.60;;;;;;;23.16;54.60;96675.59;5029660;28;24541;-76
2022/07/12 09:14:02;;;;;;;0.77;0.52;;;;;;;23.37;56.08;96677.09;5037102;28;24522;-76
2022/07/12 09:16:30;;;;;;;1.55;0.80;;;;;;;23.25;50.75;96665.09;5044497;28;24451;-76
2022/07/12 09:19:12;;;;;;;1.67;0.60;;;;;;;23.16;50.99;96658.91;5031346;28;24528;-76
2022/07/12 09:21:48;;;;;;;2.63;0.60;;;;;;;22.86;52.27;96660.94;5027173;28;24444;-76
2022/07/12 09:24:15;;;;;;;1.73;0.60;;;;;;;22.86;52.88;96670.69;5031139;28;24916;-76
2022/07/12 09:26:43;;;;;;;1.05;0.70;;;;;;;23.66;54.20;96661.81;5031043;28;25027;-76
2022/07/12 09:29:11;;;;;;;0.80;0.60;;;;;;;24.02;53.84;96674.88;5031296;28;24431;-76
2022/07/12 09:37:14;;;;;;;1.75;0.70;;;;;;;23.27;51.85;96679.00;5023014;28;24570;-75
2022/07/12 09:39:42;;;;;;;1.20;0.73;;;;;;;23.47;50.62;96672.53;5022462;28;24443;-75
2022/07/12 09:42:10;;;;;;;1.67;0.70;;;;;;;24.14;50.40;96680.75;5027050;28;24494;-75
2022/07/12 09:44:37;;;;;;;1.15;0.80;;;;;;;23.52;51.19;96680.84;5032519;28;24509;-76
2022/07/12 09:47:04;;;;;;;1.30;0.68;;;;;;;23.14;51.36;96680.22;5029243;28;24494;-76
2022/07/12 09:49:32;;;;;;;0.80;0.60;;;;;;;23.28;52.11;96672.72;5033443;28;24432;-76
2022/07/12 09:51:59;;;;;;;0.80;0.50;;;;;;;23.75;52.83;96675.91;5030099;28;24460;-76
2022/07/12 09:54:28;;;;;;;0.95;0.60;;;;;;;23.81;53.26;96677.94;5033221;28;24439;-77
2022/07/12 09:57:01;;;;;;;2.10;0.60;;;;;;;23.26;48.65;96683.47;5028949;28;24463;-76
2022/07/12 09:59:29;;;;;;;1.50;0.67;;;;;;;23.18;48.83;96678.13;5023787;28;24432;-77
2022/07/12 10:01:59;;;;;;;1.70;0.70;;;;;;;24.06;49.57;96670.94;5028467;28;25109;-76
2022/07/12 10:04:29;;;;;;;2.70;1.15;;;;;;;24.23;47.98;96671.84;5028005;28;24546;-76
2022/07/12 10:06:57;;;;;;;1.07;0.80;;;;;;;23.48;48.82;96671.56;5024743;28;24428;-75
2022/07/12 10:09:24;;;;;;;1.50;0.70;;;;;;;24.08;49.21;96671.63;5014334;28;24990;-76
2022/07/12 10:11:52;;;;;;;1.57;0.80;;;;;;;24.42;48.42;96677.91;5022584;28;25307;-76
2022/07/12 10:14:21;;;;;;;2.03;0.98;;;;;;;24.24;48.97;96684.09;5029527;28;24814;-76
2022/07/12 10:16:51;;;;;;;1.00;0.50;;;;;;;23.81;47.88;96677.94;5019789;28;24448;-76
2022/07/12 10:19:29;;;;;;;0.90;0.60;;;;;;;23.49;48.33;96682.97;5028617;28;24439;-76
2022/07/12 10:21:58;;;;;;;1.05;0.70;;;;;;;23.84;51.64;96674.13;5016018;28;24532;-76
2022/07/12 10:24:51;;;;;;;0.90;0.60;;;;;;;23.60;47.13;96683.53;5030002;28;24864;-76
2022/07/12 10:27:34;;;;;;;0.43;0.40;;;;;;;23.64;49.53;96684.06;5018307;28;24471;-76
2022/07/12 10:30:22;;;;;;;0.93;0.60;;;;;;;23.97;46.02;96684.28;5012620;28;24429;-76
2022/07/12 10:32:52;;;;;;;0.70;0.65;;;;;;;24.45;45.08;96690.81;5019495;28;24779;-75
2022/07/12 10:35:21;;;;;;;0.80;0.50;;;;;;;24.89;45.26;96672.06;5022763;28;24519;-76
2022/07/12 10:38:21;;;;;;;1.20;0.68;;;;;;;23.95;45.87;96671.22;5028618;28;24439;-76
2022/07/12 10:40:49;;;;;;;3.28;0.77;;;;;;;24.43;50.88;96658.38;4948248;29;24861;-76
2022/07/12 10:43:18;;;;;;;1.15;0.60;;;;;;;24.90;46.78;96671.06;5011545;28;24452;-75
2022/07/12 10:45:47;;;;;;;1.10;0.80;;;;;;;24.87;45.94;96666.91;5025840;28;24546;-75
2022/07/12 10:48:23;;;;;;;0.65;0.60;;;;;;;24.78;46.54;96660.78;5030158;28;24436;-74
2022/07/12 10:50:59;;;;;;;0.50;0.50;;;;;;;24.80;46.22;96661.44;5028598;28;25223;-76
2022/07/12 10:53:29;;;;;;;0.70;0.43;;;;;;;24.61;46.24;96659.91;5018306;28;24447;-77
2022/07/12 10:56:14;;;;;;;0.90;0.60;;;;;;;24.80;46.49;96663.25;5023503;28;24534;-76
2022/07/12 10:58:42;;;;;;;1.60;0.60;;;;;;;24.82;44.29;96666.59;5017860;28;24491;-76
2022/07/12 11:01:12;;;;;;;1.65;0.50;;;;;;;25.16;46.51;96663.81;5021591;28;24436;-77
2022/07/12 11:03:41;;;;;;;1.48;0.60;;;;;;;25.02;45.66;96664.44;5021419;28;24436;-76
2022/07/12 11:06:09;;;;;;;1.67;0.60;;;;;;;24.54;44.94;96661.53;5030444;28;24502;-77
2022/07/12 11:08:55;;;;;;;2.80;0.52;;;;;;;24.89;46.62;96664.13;5028651;28;24987;-77
2022/07/12 11:11:23;;;;;;;1.85;0.50;;;;;;;25.26;47.09;96659.19;5025121;28;24805;-76
2022/07/12 11:13:50;;;;;;;0.80;0.40;;;;;;;25.26;48.29;96661.84;5029372;28;24435;-77
2022/07/12 11:16:18;;;;;;;0.73;0.32;;;;;;;25.05;44.47;96664.94;5026426;28;24543;-76
2022/07/12 11:18:45;;;;;;;0.57;0.40;;;;;;;24.62;44.83;96660.72;5024091;28;24444;-75
2022/07/12 11:21:12;;;;;;;3.38;0.75;;;;;;;24.79;47.79;96654.50;5026200;28;24443;-77
2022/07/12 11:23:40;;;;;;;0.68;0.50;;;;;;;25.37;46.80;96657.22;5014943;28;24843;-78
2022/07/12 11:26:08;;;;;;;0.45;0.40;;;;;;;25.45;44.53;96654.53;5018908;28;24441;-76
2022/07/12 11:28:35;;;;;;;0.77;0.40;;;;;;;25.77;45.81;96651.00;5024102;28;24452;-76
2022/07/12 11:31:06;;;;;;;0.65;0.32;;;;;;;25.65;45.45;96650.53;5025462;28;24436;-76
2022/07/12 11:33:36;;;;;;;1.00;0.60;;;;;;;25.27;45.49;96654.72;5024215;28;24515;-76
2022/07/12 11:36:05;;;;;;;1.58;0.68;;;;;;;25.05;43.73;96657.00;5022322;28;24448;-75
2022/07/12 11:38:33;;;;;;;3.97;0.68;;;;;;;24.93;43.63;96650.38;5024933;28;25076;-76
2022/07/12 11:41:00;;;;;;;1.85;0.40;;;;;;;24.98;41.89;96657.81;5025556;28;24447;-76